SBBG

Comandante Gustavo Kraemer Airport

Bagé, Brazil
TAF SBBG 180130Z 1806/1906 11008KT CAVOK TN04/1808Z TX13/1819Z RMK PE B
Issued Valid From Valid To
Jun-18 @ 01:30 UTC
(12 hours ago)
Jun-18 @ 06:00 UTC
(7 hours ago)
Jun-19 @ 06:00 UTC
(in 17 hours)
Jun-18 @ 06:00 to Jun-19 @ 06:00
TAF SBBG 180130Z 1806/1906 11008KT CAVOK TN04/1808Z TX13/1819Z RMK PE B
Wind Visibility Clouds
110° at 8 knots 10,000+ meters
  • No significant clouds
TAF SBBG 180130Z 1806/1906 11008KT CAVOK TN04/1808Z TX13/1819Z RMK PE B
Issued Jun-18 @ 01:30 UTC
(12 hours ago)
Valid From Jun-18 @ 06:00 UTC
(7 hours ago)
Valid To Jun-19 @ 06:00 UTC
(in 17 hours)
Jun-18 @ 06:00 - Jun-19 @ 06:00
Wind Visibility
110° at 8 knots 10,000+ meters
Clouds
  • No significant clouds